Archimidis — D5CN5 — position and weather

sailwx.info

Track history (hours):
 
Tides and Currents Weather Stations Pressure Air Temp Water Temp Dewpoint Dewpoint Depression Visibility Wind Speed Wind Dir Waves Ship Positions

Archimidis

Last reported at 2018-Aug-12 17:13 UTC. Time now 2018-Aug-16 20:19 UTC.
Position N 40°26' W 073°45'.

Length 318 m; draft 10.4 m.

Type: Other ship. MMSI: 636015743.

Date/timePositionNaut miles runAvg speedWind from/ knotsBaromVisibWave heightAir tempDewpointWater temp
2018-Aug-12 17:13N 40°26' W 073°45'3 8.9
2018-Aug-12 16:55N 40°27' W 073°48'716.7
2018-Aug-12 16:31N 40°30' W 073°56'917.1
2018-Aug-12 16:00N 40°37' W 074°03'4 7.4
2018-Aug-12 15:30N 40°39' W 074°07'1 2.9
2018-Aug-12 15:00N 40°40' W 074°08'1 2.5
2018-Aug-12 14:30N 40°41' W 074°09'0 0.3
2018-Aug-12 13:55N 40°41' W 074°09'0 0.0
2018-Aug-12 13:25N 40°41' W 074°09'0 0.0
2018-Aug-12 12:55N 40°41' W 074°09'0 0.0
2018-Aug-12 12:28N 40°41' W 074°09'0 0.0
2018-Aug-12 11:58N 40°41' W 074°09'0 0.0
2018-Aug-12 11:28N 40°41' W 074°09'0 0.0
2018-Aug-12 10:58N 40°41' W 074°09'0 0.0
2018-Aug-12 10:25N 40°41' W 074°09'0 0.0
2018-Aug-12 09:58N 40°41' W 074°09'0 0.0
2018-Aug-12 09:28N 40°41' W 074°09'0 0.0
2018-Aug-12 08:58N 40°41' W 074°09'0 0.0
2018-Aug-12 08:25N 40°41' W 074°09'0 0.0
2018-Aug-12 07:58N 40°41' W 074°09'0 0.0
2018-Aug-12 07:28N 40°41' W 074°09'0 0.0
2018-Aug-12 06:58N 40°41' W 074°09'0 0.0
2018-Aug-12 06:19N 40°41' W 074°09'0 0.0
2018-Aug-12 05:58N 40°41' W 074°09'0 0.0
2018-Aug-12 05:28N 40°41' W 074°09'0 0.0
2018-Aug-12 04:58N 40°41' W 074°09'0 0.0
2018-Aug-12 04:28N 40°41' W 074°09'0 0.0
2018-Aug-12 03:58N 40°41' W 074°09'0 0.0
2018-Aug-12 03:28N 40°41' W 074°09'0 0.0
2018-Aug-12 02:58N 40°41' W 074°09'0 0.0
2018-Aug-12 02:28N 40°41' W 074°09'0 0.0
2018-Aug-12 01:58N 40°41' W 074°09'0 0.0
2018-Aug-12 01:28N 40°41' W 074°09'0 0.0
2018-Aug-12 00:58N 40°41' W 074°09'0 0.0
2018-Aug-12 00:28N 40°41' W 074°09'0 0.0
2018-Aug-11 23:55N 40°41' W 074°09'0 0.0
2018-Aug-11 23:28N 40°41' W 074°09'0 0.0
2018-Aug-11 22:58N 40°41' W 074°09'0 0.0
2018-Aug-11 22:28N 40°41' W 074°09'0 0.0
2018-Aug-11 21:58N 40°41' W 074°09'0 0.0
2018-Aug-11 21:28N 40°41' W 074°09'0 0.0
2018-Aug-11 20:52N 40°41' W 074°09'0 0.0
2018-Aug-11 20:28N 40°41' W 074°09'0 0.0
2018-Aug-11 19:58N 40°41' W 074°09'0 0.0
2018-Aug-11 19:28N 40°41' W 074°09'0 0.0
2018-Aug-11 18:58N 40°41' W 074°09'0 0.0
2018-Aug-11 18:28N 40°41' W 074°09'0 0.0
2018-Aug-11 17:58N 40°41' W 074°09'0 0.0
2018-Aug-11 17:16N 40°41' W 074°09'0 0.0
2018-Aug-11 16:58N 40°41' W 074°09'0 0.0
2018-Aug-11 16:28N 40°41' W 074°09'0 0.0
2018-Aug-11 15:55N 40°41' W 074°09'0 0.0
2018-Aug-11 15:22N 40°41' W 074°09'0 0.0
2018-Aug-11 14:58N 40°41' W 074°09'0 0.0
2018-Aug-11 14:28N 40°41' W 074°09'0 0.0
2018-Aug-11 13:58N 40°41' W 074°09'0 0.0
2018-Aug-11 13:28N 40°41' W 074°09'0 0.0
2018-Aug-11 12:58N 40°41' W 074°09'0 0.0
2018-Aug-11 12:28N 40°41' W 074°09'0 0.0
2018-Aug-11 11:58N 40°41' W 074°09'0 0.0
2018-Aug-11 11:25N 40°41' W 074°09'0 0.0
2018-Aug-11 10:58N 40°41' W 074°09'0 0.0
2018-Aug-11 10:28N 40°41' W 074°09'0 0.0
2018-Aug-11 09:58N 40°41' W 074°09'0 0.0
2018-Aug-11 09:28N 40°41' W 074°09'0 0.0
2018-Aug-11 08:58N 40°41' W 074°09'0 0.0
2018-Aug-11 08:28N 40°41' W 074°09'0 0.0
2018-Aug-11 07:58N 40°41' W 074°09'0 0.2
2018-Aug-11 07:30N 40°41' W 074°09'2 4.4
2018-Aug-11 07:00N 40°39' W 074°09'3 5.6
2018-Aug-11 06:30N 40°39' W 074°05'2 4.4
2018-Aug-11 06:00N 40°38' W 074°03'2 3.8
2018-Aug-11 05:30N 40°36' W 074°02'3 5.6
2018-Aug-11 05:00N 40°33' W 074°02'611.9
2018-Aug-11 04:30N 40°30' W 073°55'713.6
2018-Aug-11 04:00N 40°26' W 073°47'5 9.9
2018-Aug-11 03:30N 40°21' W 073°46'814.5
2018-Aug-11 02:57N 40°13' W 073°45'715.0
2018-Aug-11 02:30N 40°07' W 073°44'815.4
2018-Aug-11 02:01N 39°59' W 073°43'815.3
2018-Aug-11 01:31N 39°52' W 073°42'714.9
2018-Aug-11 01:00N 39°44' W 073°42'815.3
2018-Aug-11 00:30N 39°37' W 073°45'815.6
2018-Aug-11 00:00N 39°29' W 073°47'815.6
2018-Aug-10 23:30N 39°22' W 073°50'815.4
2018-Aug-10 23:00N 39°14' W 073°53'815.4
2018-Aug-10 22:30N 39°07' W 073°55'815.5
2018-Aug-10 22:00N 38°59' W 073°58'1315.9
2018-Aug-10 21:09N 38°46' W 074°02'316.4
2018-Aug-10 21:00N 38°44' W 074°03'510.5
2018-Aug-10 20:29N 38°38' W 074°04'813.4
2018-Aug-10 19:53N 38°31' W 074°07'3117.3
2018-Aug-10 18:04N 38°00' W 074°16'317.6
2018-Aug-10 17:55N 37°57' W 074°17'717.8
2018-Aug-10 17:30N 37°50' W 074°19'917.7
2018-Aug-10 17:00N 37°42' W 074°21'917.4
2018-Aug-10 16:28N 37°33' W 074°24'4617.3
2018-Aug-10 13:49N 36°48' W 074°39'517.2
2018-Aug-10 13:30N 36°43' W 074°40'11717.9
2018-Aug-10 06:59N 34°53' W 075°27'918.1
2018-Aug-10 06:31N 34°47' W 075°35'917.6
2018-Aug-10 06:01N 34°41' W 075°43'917.3
2018-Aug-10 05:31N 34°35' W 075°50'917.3
2018-Aug-10 05:01N 34°30' W 075°58'917.3
2018-Aug-10 04:30N 34°24' W 076°07'917.7
2018-Aug-10 04:01N 34°19' W 076°15'917.9
2018-Aug-10 03:31N 34°13' W 076°23'917.8
2018-Aug-10 03:00N 34°07' W 076°31'917.9
2018-Aug-10 02:30N 34°01' W 076°40'918.1
2018-Aug-10 02:01N 33°55' W 076°48'2918.6
2018-Aug-10 00:26N 33°37' W 077°15'16419.8
2018-Aug-09 16:10N 32°05' W 079°56'519.9
2018-Aug-09 15:55N 32°02' W 080°01'819.3
2018-Aug-09 15:30N 31°59' W 080°10'1020.0
2018-Aug-09 14:59N 31°58' W 080°22'919.5
2018-Aug-09 14:30N 31°56' W 080°33'816.5
2018-Aug-09 14:00N 31°58' W 080°42'816.4
2018-Aug-09 13:30N 32°02' W 080°50'612.8
2018-Aug-09 13:00N 32°04' W 080°57'510.1
2018-Aug-09 12:31N 32°05' W 081°03'3 4.8
2018-Aug-09 11:57N 32°05' W 081°06'0 0.0
2018-Aug-09 11:27N 32°05' W 081°06'0 0.0
2018-Aug-09 10:57N 32°05' W 081°06'0 0.0
2018-Aug-09 10:21N 32°05' W 081°06'0 0.0
2018-Aug-09 09:51N 32°05' W 081°06'0 0.0
2018-Aug-09 09:27N 32°05' W 081°06'0 0.0
2018-Aug-09 08:57N 32°05' W 081°06'0 0.0
2018-Aug-09 08:27N 32°05' W 081°06'0 0.0
2018-Aug-09 07:57N 32°05' W 081°06'0 0.0
2018-Aug-09 07:27N 32°05' W 081°06'0 0.0
2018-Aug-09 06:51N 32°05' W 081°06'0 0.0
2018-Aug-09 06:27N 32°05' W 081°06'0 0.0
2018-Aug-09 05:57N 32°05' W 081°06'0 0.0
2018-Aug-09 05:27N 32°05' W 081°06'0 0.0
2018-Aug-09 04:57N 32°05' W 081°06'0 0.0
2018-Aug-09 04:27N 32°05' W 081°06'0 0.0
2018-Aug-09 03:57N 32°05' W 081°06'0 0.0
2018-Aug-09 03:21N 32°05' W 081°06'0 0.0
2018-Aug-09 02:51N 32°05' W 081°06'0 0.0
2018-Aug-09 02:21N 32°05' W 081°06'0 0.0
2018-Aug-09 01:57N 32°05' W 081°06'0 0.0
2018-Aug-09 01:27N 32°05' W 081°06'0 0.0
2018-Aug-09 00:45N 32°05' W 081°06'0 0.2
2018-Aug-09 00:30N 32°05' W 081°06'1 2.7
2018-Aug-09 00:00N 32°06' W 081°07'2 0.8
2018-Aug-08 21:57N 32°08' W 081°08'0 0.0
2018-Aug-08 21:27N 32°08' W 081°08'0 0.0
2018-Aug-08 14:21N 32°08' W 081°08'0 0.0
2018-Aug-08 13:39N 32°08' W 081°08'0 0.0
2018-Aug-08 13:21N 32°08' W 081°08'0 0.0
2018-Aug-08 12:57N 32°08' W 081°08'0 0.0
2018-Aug-08 12:27N 32°08' W 081°08'0 0.1
2018-Aug-08 12:00N 32°08' W 081°08'2 4.7
2018-Aug-08 11:30N 32°06' W 081°07'3 5.9
2018-Aug-08 10:57N 32°05' W 081°03'3 6.9
2018-Aug-08 10:30N 32°06' W 080°60'4 7.4
2018-Aug-08 10:00N 32°03' W 080°56'5 9.1
2018-Aug-08 09:29N 32°02' W 080°51'713.6
2018-Aug-08 09:00N 31°59' W 080°45'611.4
2018-Aug-08 08:30N 31°56' W 080°38'4 8.1
2018-Aug-08 08:00N 31°57' W 080°34'2 4.7
2018-Aug-08 07:29N 31°58' W 080°31'0 0.2
2018-Aug-08 06:43N 31°58' W 080°31'0 0.0
2018-Aug-08 06:25N 31°58' W 080°31'0 0.0
2018-Aug-08 04:19N 31°58' W 080°31'0 0.0
2018-Aug-08 03:07N 31°58' W 080°31'0 0.1
2018-Aug-08 02:55N 31°58' W 080°31'0 0.0
2018-Aug-08 02:25N 31°58' W 080°31'0 0.0
2018-Aug-08 01:37N 31°58' W 080°31'0 0.0
2018-Aug-08 01:25N 31°58' W 080°31'0 0.0
2018-Aug-07 23:19N 31°58' W 080°31'0 0.0
2018-Aug-07 22:55N 31°58' W 080°31'0 0.0
2018-Aug-07 22:01N 31°58' W 080°31'0 0.0
2018-Aug-07 18:49N 31°58' W 080°32'0 0.1
2018-Aug-07 18:13N 31°58' W 080°32'0 0.0
2018-Aug-07 17:55N 31°58' W 080°32'0 0.0
2018-Aug-07 17:25N 31°58' W 080°32'0 0.0
2018-Aug-07 16:55N 31°58' W 080°32'0 0.0
2018-Aug-07 16:25N 31°58' W 080°32'0 0.1
2018-Aug-07 15:43N 31°58' W 080°32'0 0.2
2018-Aug-07 15:25N 31°58' W 080°32'0 0.2
2018-Aug-07 14:55N 31°58' W 080°32'0 0.1
2018-Aug-07 14:19N 31°58' W 080°31'0 0.0
2018-Aug-07 13:49N 31°58' W 080°31'0 0.0
2018-Aug-07 13:07N 31°58' W 080°31'0 0.0
2018-Aug-07 12:49N 31°58' W 080°31'0 0.0
2018-Aug-07 12:13N 31°58' W 080°31'0 0.1
2018-Aug-07 11:55N 31°58' W 080°31'0 0.0
2018-Aug-07 11:25N 31°58' W 080°31'0 0.0
2018-Aug-07 10:55N 31°58' W 080°31'0 0.0
2018-Aug-07 10:25N 31°58' W 080°31'0 0.0
2018-Aug-07 09:55N 31°58' W 080°31'0 0.0
2018-Aug-07 09:19N 31°58' W 080°31'0 0.1
2018-Aug-07 08:49N 31°58' W 080°31'0 0.1
2018-Aug-07 08:25N 31°58' W 080°31'0 0.1
2018-Aug-07 07:55N 31°58' W 080°31'0 0.1
2018-Aug-07 07:25N 31°58' W 080°31'0 0.1
2018-Aug-07 06:43N 31°58' W 080°31'0 0.1
2018-Aug-07 06:19N 31°58' W 080°31'0 0.0
2018-Aug-07 05:37N 31°58' W 080°31'0 0.0
2018-Aug-07 03:13N 31°58' W 080°31'0 0.2
2018-Aug-07 02:49N 31°58' W 080°31'0 0.1
2018-Aug-07 02:13N 31°58' W 080°31'0 0.0
2018-Aug-07 01:49N 31°58' W 080°31'0 0.0
2018-Aug-07 01:25N 31°58' W 080°31'0 0.2
2018-Aug-07 00:49N 31°58' W 080°31'0 0.1
2018-Aug-07 00:25N 31°58' W 080°31'0 0.1
2018-Aug-06 23:55N 31°58' W 080°31'0 0.1
2018-Aug-06 23:25N 31°58' W 080°31'0 0.2
2018-Aug-06 21:19N 31°59' W 080°31'3 9.6
2018-Aug-06 20:58N 31°59' W 080°28'714.0
2018-Aug-06 20:30N 31°59' W 080°20'714.0
2018-Aug-06 20:00N 32°00' W 080°12'12414.1
2018-Aug-06 11:15N 33°06' W 078°07'24810.4
2018-Aug-05 11:17N 36°58' W 076°20'3 9.7
2018-Aug-05 11:00N 36°56' W 076°20'4 8.1
2018-Aug-05 10:30N 36°52' W 076°20'0 0.3
2018-Aug-05 09:58N 36°51' W 076°20'0 0.0
2018-Aug-05 09:28N 36°51' W 076°20'0 0.0
2018-Aug-05 08:58N 36°51' W 076°20'0 0.0
2018-Aug-05 08:28N 36°51' W 076°20'0 0.0
2018-Aug-05 07:58N 36°51' W 076°20'0 0.0
2018-Aug-05 07:28N 36°51' W 076°20'0 0.0
2018-Aug-05 06:58N 36°51' W 076°20'0 0.0
2018-Aug-05 06:28N 36°51' W 076°20'0 0.0
2018-Aug-05 05:58N 36°51' W 076°20'0 0.0
2018-Aug-05 05:28N 36°51' W 076°20'0 0.0
2018-Aug-05 04:58N 36°51' W 076°20'0 0.0
2018-Aug-05 04:28N 36°51' W 076°20'0 0.0
2018-Aug-05 03:58N 36°51' W 076°20'0 0.0
2018-Aug-05 03:28N 36°51' W 076°20'0 0.0
2018-Aug-05 02:58N 36°51' W 076°20'0 0.0
2018-Aug-05 02:28N 36°51' W 076°20'0 0.0
2018-Aug-05 01:58N 36°51' W 076°20'0 0.0
2018-Aug-05 01:28N 36°51' W 076°20'0 0.0
2018-Aug-05 00:58N 36°51' W 076°20'0 0.0
2018-Aug-05 00:25N 36°51' W 076°20'0 0.0
2018-Aug-04 23:58N 36°51' W 076°20'0 0.0
2018-Aug-04 23:28N 36°51' W 076°20'0 0.0
2018-Aug-04 22:58N 36°51' W 076°20'0 0.0
2018-Aug-04 22:28N 36°51' W 076°20'0 0.0
2018-Aug-04 21:58N 36°51' W 076°20'0 0.0
2018-Aug-04 21:28N 36°51' W 076°20'0 0.0
2018-Aug-04 20:58N 36°51' W 076°20'0 0.0
2018-Aug-04 20:28N 36°51' W 076°20'0 0.0
2018-Aug-04 19:58N 36°51' W 076°20'0 0.6
2018-Aug-04 19:31N 36°52' W 076°19'3 5.3
2018-Aug-04 19:01N 36°54' W 076°20'5 9.6
2018-Aug-04 18:30N 36°59' W 076°19'1017.3
2018-Aug-04 17:57N 36°59' W 076°08'4913.5
2018-Aug-04 14:21N 37°47' W 076°11'919.6
2018-Aug-04 13:53N 37°56' W 076°10'718.5
2018-Aug-04 13:30N 38°03' W 076°13'918.5
2018-Aug-04 13:00N 38°12' W 076°14'2917.8
2018-Aug-04 11:22N 38°40' W 076°25'818.9
2018-Aug-04 10:56N 38°48' W 076°25'917.8
2018-Aug-04 10:25N 38°57' W 076°23'615.6
2018-Aug-04 10:00N 39°03' W 076°23'713.8
2018-Aug-04 09:30N 39°10' W 076°26'611.4
2018-Aug-04 09:00N 39°13' W 076°32'2 4.6
2018-Aug-04 08:30N 39°15' W 076°33'0 0.4
2018-Aug-04 08:00N 39°15' W 076°33'0 0.0
2018-Aug-04 07:30N 39°15' W 076°33'0 0.0
2018-Aug-04 07:00N 39°15' W 076°33'0 0.0
2018-Aug-04 06:30N 39°15' W 076°33'0 0.0
2018-Aug-04 06:00N 39°15' W 076°33'0 0.0
2018-Aug-04 05:30N 39°15' W 076°33'0 0.0
2018-Aug-04 05:00N 39°15' W 076°33'0 0.0
2018-Aug-04 04:30N 39°15' W 076°33'0 0.0
2018-Aug-04 04:00N 39°15' W 076°33'0 0.0
2018-Aug-04 03:30N 39°15' W 076°33'0 0.0
2018-Aug-04 03:00N 39°15' W 076°33'0 0.0
2018-Aug-04 02:30N 39°15' W 076°33'0 0.0
2018-Aug-04 02:00N 39°15' W 076°33'0 0.0
2018-Aug-04 01:30N 39°15' W 076°33'0 0.0
2018-Aug-04 01:00N 39°15' W 076°33'0 0.0
2018-Aug-04 00:30N 39°15' W 076°33'0 0.0
2018-Aug-04 00:00N 39°15' W 076°33'0 0.0
2018-Aug-03 23:30N 39°15' W 076°33'0 0.0
2018-Aug-03 23:00N 39°15' W 076°33'0 0.0
2018-Aug-03 22:30N 39°15' W 076°33'0 0.0
2018-Aug-03 22:00N 39°15' W 076°33'0 0.0
2018-Aug-03 21:30N 39°15' W 076°33'0 0.0
2018-Aug-03 21:00N 39°15' W 076°33'0 0.0
2018-Aug-03 20:30N 39°15' W 076°33'0 0.0
2018-Aug-03 20:00N 39°15' W 076°33'0 0.0
2018-Aug-03 19:30N 39°15' W 076°33'0 0.0
2018-Aug-03 19:00N 39°15' W 076°33'0 0.0
2018-Aug-03 18:30N 39°15' W 076°33'0 0.0
2018-Aug-03 18:00N 39°15' W 076°33'0 0.0
2018-Aug-03 17:30N 39°15' W 076°33'0 0.0
2018-Aug-03 17:00N 39°15' W 076°33'0 0.0
2018-Aug-03 16:30N 39°15' W 076°33'0 0.0
2018-Aug-03 16:00N 39°15' W 076°33'0 0.0
2018-Aug-03 15:30N 39°15' W 076°33'0 0.0
2018-Aug-03 15:00N 39°15' W 076°33'0 0.0
2018-Aug-03 14:30N 39°15' W 076°33'0 0.0
2018-Aug-03 14:00N 39°15' W 076°33'0 0.0
2018-Aug-03 13:30N 39°15' W 076°33'0 0.0
2018-Aug-03 13:00N 39°15' W 076°33'0 0.0
2018-Aug-03 12:30N 39°15' W 076°33'0 0.0
2018-Aug-03 12:00N 39°15' W 076°33'0 0.0
2018-Aug-03 11:30N 39°15' W 076°33'0 0.0
2018-Aug-03 11:00N 39°15' W 076°33'0 0.0
2018-Aug-03 10:30N 39°15' W 076°33'0 0.0
2018-Aug-03 10:00N 39°15' W 076°33'0 0.0
2018-Aug-03 09:30N 39°15' W 076°33'0 0.0
2018-Aug-03 09:00N 39°15' W 076°33'0 0.0
2018-Aug-03 08:30N 39°15' W 076°33'0 0.0
2018-Aug-03 08:00N 39°15' W 076°33'0 0.0
2018-Aug-03 07:30N 39°15' W 076°33'0 0.0
2018-Aug-03 07:00N 39°15' W 076°33'0 0.0
2018-Aug-03 06:30N 39°15' W 076°33'0 0.0
2018-Aug-03 06:00N 39°15' W 076°33'0 0.0
2018-Aug-03 05:30N 39°15' W 076°33'0 0.0
2018-Aug-03 05:00N 39°15' W 076°33'0 0.0
2018-Aug-03 04:30N 39°15' W 076°33'0 0.0
2018-Aug-03 04:00N 39°15' W 076°33'0 0.0
2018-Aug-03 03:30N 39°15' W 076°33'0 0.0
2018-Aug-03 03:00N 39°15' W 076°33'0 0.0
2018-Aug-03 02:30N 39°15' W 076°33'0 0.0
2018-Aug-03 02:00N 39°15' W 076°33'0 0.0
2018-Aug-03 01:30N 39°15' W 076°33'0 0.0
2018-Aug-03 01:00N 39°15' W 076°33'0 0.0
2018-Aug-03 00:30N 39°15' W 076°33'0 0.0
2018-Aug-03 00:00N 39°15' W 076°33'0 0.0
2018-Aug-02 23:30N 39°15' W 076°33'0 0.0
2018-Aug-02 23:00N 39°15' W 076°33'0 0.0
2018-Aug-02 22:30N 39°15' W 076°33'0 0.8
2018-Aug-02 22:00N 39°15' W 076°33'3 5.8
2018-Aug-02 21:30N 39°12' W 076°31'5 9.2
2018-Aug-02 21:00N 39°10' W 076°26'611.2
2018-Aug-02 20:30N 39°05' W 076°24'611.6
2018-Aug-02 20:00N 38°59' W 076°23'713.1
2018-Aug-02 19:31N 38°52' W 076°24'917.4
2018-Aug-02 18:59N 38°44' W 076°26'917.9
2018-Aug-02 18:30N 38°35' W 076°26'1616.1
2018-Aug-02 17:31N 38°20' W 076°18'117.1
2018-Aug-02 17:28N 38°19' W 076°18'  
Track history (hours):
 
Tides and Currents Weather Stations Pressure Air Temp Water Temp Dewpoint Dewpoint Depression Visibility Wind Speed Wind Dir Waves Ship Positions

Archimidis

Last reported at 2018-Aug-12 17:13 UTC. Time now 2018-Aug-16 20:19 UTC.
Position N 40°26' W 073°45'.

Length 318 m; draft 10.4 m.

Type: Other ship. MMSI: 636015743.

Date/timePositionNaut miles runAvg speedWind from/ knotsBaromVisibWave heightAir tempDewpointWater temp
2018-Aug-12 17:13N 40°26' W 073°45'3 8.9
2018-Aug-12 16:55N 40°27' W 073°48'716.7
2018-Aug-12 16:31N 40°30' W 073°56'917.1
2018-Aug-12 16:00N 40°37' W 074°03'4 7.4
2018-Aug-12 15:30N 40°39' W 074°07'1 2.9
2018-Aug-12 15:00N 40°40' W 074°08'1 2.5
2018-Aug-12 14:30N 40°41' W 074°09'0 0.3
2018-Aug-12 13:55N 40°41' W 074°09'0 0.0
2018-Aug-12 13:25N 40°41' W 074°09'0 0.0
2018-Aug-12 12:55N 40°41' W 074°09'0 0.0
2018-Aug-12 12:28N 40°41' W 074°09'0 0.0
2018-Aug-12 11:58N 40°41' W 074°09'0 0.0
2018-Aug-12 11:28N 40°41' W 074°09'0 0.0
2018-Aug-12 10:58N 40°41' W 074°09'0 0.0
2018-Aug-12 10:25N 40°41' W 074°09'0 0.0
2018-Aug-12 09:58N 40°41' W 074°09'0 0.0
2018-Aug-12 09:28N 40°41' W 074°09'0 0.0
2018-Aug-12 08:58N 40°41' W 074°09'0 0.0
2018-Aug-12 08:25N 40°41' W 074°09'0 0.0
2018-Aug-12 07:58N 40°41' W 074°09'0 0.0
2018-Aug-12 07:28N 40°41' W 074°09'0 0.0
2018-Aug-12 06:58N 40°41' W 074°09'0 0.0
2018-Aug-12 06:19N 40°41' W 074°09'0 0.0
2018-Aug-12 05:58N 40°41' W 074°09'0 0.0
2018-Aug-12 05:28N 40°41' W 074°09'0 0.0
2018-Aug-12 04:58N 40°41' W 074°09'0 0.0
2018-Aug-12 04:28N 40°41' W 074°09'0 0.0
2018-Aug-12 03:58N 40°41' W 074°09'0 0.0
2018-Aug-12 03:28N 40°41' W 074°09'0 0.0
2018-Aug-12 02:58N 40°41' W 074°09'0 0.0
2018-Aug-12 02:28N 40°41' W 074°09'0 0.0
2018-Aug-12 01:58N 40°41' W 074°09'0 0.0
2018-Aug-12 01:28N 40°41' W 074°09'0 0.0
2018-Aug-12 00:58N 40°41' W 074°09'0 0.0
2018-Aug-12 00:28N 40°41' W 074°09'0 0.0
2018-Aug-11 23:55N 40°41' W 074°09'0 0.0
2018-Aug-11 23:28N 40°41' W 074°09'0 0.0
2018-Aug-11 22:58N 40°41' W 074°09'0 0.0
2018-Aug-11 22:28N 40°41' W 074°09'0 0.0
2018-Aug-11 21:58N 40°41' W 074°09'0 0.0
2018-Aug-11 21:28N 40°41' W 074°09'0 0.0
2018-Aug-11 20:52N 40°41' W 074°09'0 0.0
2018-Aug-11 20:28N 40°41' W 074°09'0 0.0
2018-Aug-11 19:58N 40°41' W 074°09'0 0.0
2018-Aug-11 19:28N 40°41' W 074°09'0 0.0
2018-Aug-11 18:58N 40°41' W 074°09'0 0.0
2018-Aug-11 18:28N 40°41' W 074°09'0 0.0
2018-Aug-11 17:58N 40°41' W 074°09'0 0.0
2018-Aug-11 17:16N 40°41' W 074°09'0 0.0
2018-Aug-11 16:58N 40°41' W 074°09'0 0.0
2018-Aug-11 16:28N 40°41' W 074°09'0 0.0
2018-Aug-11 15:55N 40°41' W 074°09'0 0.0
2018-Aug-11 15:22N 40°41' W 074°09'0 0.0
2018-Aug-11 14:58N 40°41' W 074°09'0 0.0
2018-Aug-11 14:28N 40°41' W 074°09'0 0.0
2018-Aug-11 13:58N 40°41' W 074°09'0 0.0
2018-Aug-11 13:28N 40°41' W 074°09'0 0.0
2018-Aug-11 12:58N 40°41' W 074°09'0 0.0
2018-Aug-11 12:28N 40°41' W 074°09'0 0.0
2018-Aug-11 11:58N 40°41' W 074°09'0 0.0
2018-Aug-11 11:25N 40°41' W 074°09'0 0.0
2018-Aug-11 10:58N 40°41' W 074°09'0 0.0
2018-Aug-11 10:28N 40°41' W 074°09'0 0.0
2018-Aug-11 09:58N 40°41' W 074°09'0 0.0
2018-Aug-11 09:28N 40°41' W 074°09'0 0.0
2018-Aug-11 08:58N 40°41' W 074°09'0 0.0
2018-Aug-11 08:28N 40°41' W 074°09'0 0.0
2018-Aug-11 07:58N 40°41' W 074°09'0 0.2
2018-Aug-11 07:30N 40°41' W 074°09'2 4.4
2018-Aug-11 07:00N 40°39' W 074°09'3 5.6
2018-Aug-11 06:30N 40°39' W 074°05'2 4.4
2018-Aug-11 06:00N 40°38' W 074°03'2 3.8
2018-Aug-11 05:30N 40°36' W 074°02'3 5.6
2018-Aug-11 05:00N 40°33' W 074°02'611.9
2018-Aug-11 04:30N 40°30' W 073°55'713.6
2018-Aug-11 04:00N 40°26' W 073°47'5 9.9
2018-Aug-11 03:30N 40°21' W 073°46'814.5
2018-Aug-11 02:57N 40°13' W 073°45'715.0
2018-Aug-11 02:30N 40°07' W 073°44'815.4
2018-Aug-11 02:01N 39°59' W 073°43'815.3
2018-Aug-11 01:31N 39°52' W 073°42'714.9
2018-Aug-11 01:00N 39°44' W 073°42'815.3
2018-Aug-11 00:30N 39°37' W 073°45'815.6
2018-Aug-11 00:00N 39°29' W 073°47'815.6
2018-Aug-10 23:30N 39°22' W 073°50'815.4
2018-Aug-10 23:00N 39°14' W 073°53'815.4
2018-Aug-10 22:30N 39°07' W 073°55'815.5
2018-Aug-10 22:00N 38°59' W 073°58'1315.9
2018-Aug-10 21:09N 38°46' W 074°02'316.4
2018-Aug-10 21:00N 38°44' W 074°03'510.5
2018-Aug-10 20:29N 38°38' W 074°04'813.4
2018-Aug-10 19:53N 38°31' W 074°07'3117.3
2018-Aug-10 18:04N 38°00' W 074°16'317.6
2018-Aug-10 17:55N 37°57' W 074°17'717.8
2018-Aug-10 17:30N 37°50' W 074°19'917.7
2018-Aug-10 17:00N 37°42' W 074°21'917.4
2018-Aug-10 16:28N 37°33' W 074°24'4617.3
2018-Aug-10 13:49N 36°48' W 074°39'517.2
2018-Aug-10 13:30N 36°43' W 074°40'11717.9
2018-Aug-10 06:59N 34°53' W 075°27'918.1
2018-Aug-10 06:31N 34°47' W 075°35'917.6
2018-Aug-10 06:01N 34°41' W 075°43'917.3
2018-Aug-10 05:31N 34°35' W 075°50'917.3
2018-Aug-10 05:01N 34°30' W 075°58'917.3
2018-Aug-10 04:30N 34°24' W 076°07'917.7
2018-Aug-10 04:01N 34°19' W 076°15'917.9
2018-Aug-10 03:31N 34°13' W 076°23'917.8
2018-Aug-10 03:00N 34°07' W 076°31'917.9
2018-Aug-10 02:30N 34°01' W 076°40'918.1
2018-Aug-10 02:01N 33°55' W 076°48'2918.6
2018-Aug-10 00:26N 33°37' W 077°15'16419.8
2018-Aug-09 16:10N 32°05' W 079°56'519.9
2018-Aug-09 15:55N 32°02' W 080°01'819.3
2018-Aug-09 15:30N 31°59' W 080°10'1020.0
2018-Aug-09 14:59N 31°58' W 080°22'919.5
2018-Aug-09 14:30N 31°56' W 080°33'816.5
2018-Aug-09 14:00N 31°58' W 080°42'816.4
2018-Aug-09 13:30N 32°02' W 080°50'612.8
2018-Aug-09 13:00N 32°04' W 080°57'510.1
2018-Aug-09 12:31N 32°05' W 081°03'3 4.8
2018-Aug-09 11:57N 32°05' W 081°06'0 0.0
2018-Aug-09 11:27N 32°05' W 081°06'0 0.0
2018-Aug-09 10:57N 32°05' W 081°06'0 0.0
2018-Aug-09 10:21N 32°05' W 081°06'0 0.0
2018-Aug-09 09:51N 32°05' W 081°06'0 0.0
2018-Aug-09 09:27N 32°05' W 081°06'0 0.0
2018-Aug-09 08:57N 32°05' W 081°06'0 0.0
2018-Aug-09 08:27N 32°05' W 081°06'0 0.0
2018-Aug-09 07:57N 32°05' W 081°06'0 0.0
2018-Aug-09 07:27N 32°05' W 081°06'0 0.0
2018-Aug-09 06:51N 32°05' W 081°06'0 0.0
2018-Aug-09 06:27N 32°05' W 081°06'0 0.0
2018-Aug-09 05:57N 32°05' W 081°06'0 0.0
2018-Aug-09 05:27N 32°05' W 081°06'0 0.0
2018-Aug-09 04:57N 32°05' W 081°06'0 0.0
2018-Aug-09 04:27N 32°05' W 081°06'0 0.0
2018-Aug-09 03:57N 32°05' W 081°06'0 0.0
2018-Aug-09 03:21N 32°05' W 081°06'0 0.0
2018-Aug-09 02:51N 32°05' W 081°06'0 0.0
2018-Aug-09 02:21N 32°05' W 081°06'0 0.0
2018-Aug-09 01:57N 32°05' W 081°06'0 0.0
2018-Aug-09 01:27N 32°05' W 081°06'0 0.0
2018-Aug-09 00:45N 32°05' W 081°06'0 0.2
2018-Aug-09 00:30N 32°05' W 081°06'1 2.7
2018-Aug-09 00:00N 32°06' W 081°07'2 0.8
2018-Aug-08 21:57N 32°08' W 081°08'0 0.0
2018-Aug-08 21:27N 32°08' W 081°08'0 0.0
2018-Aug-08 14:21N 32°08' W 081°08'0 0.0
2018-Aug-08 13:39N 32°08' W 081°08'0 0.0
2018-Aug-08 13:21N 32°08' W 081°08'0 0.0
2018-Aug-08 12:57N 32°08' W 081°08'0 0.0
2018-Aug-08 12:27N 32°08' W 081°08'0 0.1
2018-Aug-08 12:00N 32°08' W 081°08'2 4.7
2018-Aug-08 11:30N 32°06' W 081°07'3 5.9
2018-Aug-08 10:57N 32°05' W 081°03'3 6.9
2018-Aug-08 10:30N 32°06' W 080°60'4 7.4
2018-Aug-08 10:00N 32°03' W 080°56'5 9.1
2018-Aug-08 09:29N 32°02' W 080°51'713.6
2018-Aug-08 09:00N 31°59' W 080°45'611.4
2018-Aug-08 08:30N 31°56' W 080°38'4 8.1
2018-Aug-08 08:00N 31°57' W 080°34'2 4.7
2018-Aug-08 07:29N 31°58' W 080°31'0 0.2
2018-Aug-08 06:43N 31°58' W 080°31'0 0.0
2018-Aug-08 06:25N 31°58' W 080°31'0 0.0
2018-Aug-08 04:19N 31°58' W 080°31'0 0.0
2018-Aug-08 03:07N 31°58' W 080°31'0 0.1
2018-Aug-08 02:55N 31°58' W 080°31'0 0.0
2018-Aug-08 02:25N 31°58' W 080°31'0 0.0
2018-Aug-08 01:37N 31°58' W 080°31'0 0.0
2018-Aug-08 01:25N 31°58' W 080°31'0 0.0
2018-Aug-07 23:19N 31°58' W 080°31'0 0.0
2018-Aug-07 22:55N 31°58' W 080°31'0 0.0
2018-Aug-07 22:01N 31°58' W 080°31'0 0.0
2018-Aug-07 18:49N 31°58' W 080°32'0 0.1
2018-Aug-07 18:13N 31°58' W 080°32'0 0.0
2018-Aug-07 17:55N 31°58' W 080°32'0 0.0
2018-Aug-07 17:25N 31°58' W 080°32'0 0.0
2018-Aug-07 16:55N 31°58' W 080°32'0 0.0
2018-Aug-07 16:25N 31°58' W 080°32'0 0.1
2018-Aug-07 15:43N 31°58' W 080°32'0 0.2
2018-Aug-07 15:25N 31°58' W 080°32'0 0.2
2018-Aug-07 14:55N 31°58' W 080°32'0 0.1
2018-Aug-07 14:19N 31°58' W 080°31'0 0.0
2018-Aug-07 13:49N 31°58' W 080°31'0 0.0
2018-Aug-07 13:07N 31°58' W 080°31'0 0.0
2018-Aug-07 12:49N 31°58' W 080°31'0 0.0
2018-Aug-07 12:13N 31°58' W 080°31'0 0.1
2018-Aug-07 11:55N 31°58' W 080°31'0 0.0
2018-Aug-07 11:25N 31°58' W 080°31'0 0.0
2018-Aug-07 10:55N 31°58' W 080°31'0 0.0
2018-Aug-07 10:25N 31°58' W 080°31'0 0.0
2018-Aug-07 09:55N 31°58' W 080°31'0 0.0
2018-Aug-07 09:19N 31°58' W 080°31'0 0.1
2018-Aug-07 08:49N 31°58' W 080°31'0 0.1
2018-Aug-07 08:25N 31°58' W 080°31'0 0.1
2018-Aug-07 07:55N 31°58' W 080°31'0 0.1
2018-Aug-07 07:25N 31°58' W 080°31'0 0.1
2018-Aug-07 06:43N 31°58' W 080°31'0 0.1
2018-Aug-07 06:19N 31°58' W 080°31'0 0.0
2018-Aug-07 05:37N 31°58' W 080°31'0 0.0
2018-Aug-07 03:13N 31°58' W 080°31'0 0.2
2018-Aug-07 02:49N 31°58' W 080°31'0 0.1
2018-Aug-07 02:13N 31°58' W 080°31'0 0.0
2018-Aug-07 01:49N 31°58' W 080°31'0 0.0
2018-Aug-07 01:25N 31°58' W 080°31'0 0.2
2018-Aug-07 00:49N 31°58' W 080°31'0 0.1
2018-Aug-07 00:25N 31°58' W 080°31'0 0.1
2018-Aug-06 23:55N 31°58' W 080°31'0 0.1
2018-Aug-06 23:25N 31°58' W 080°31'0 0.2
2018-Aug-06 21:19N 31°59' W 080°31'3 9.6
2018-Aug-06 20:58N 31°59' W 080°28'714.0
2018-Aug-06 20:30N 31°59' W 080°20'714.0
2018-Aug-06 20:00N 32°00' W 080°12'12414.1
2018-Aug-06 11:15N 33°06' W 078°07'24810.4
2018-Aug-05 11:17N 36°58' W 076°20'3 9.7
2018-Aug-05 11:00N 36°56' W 076°20'4 8.1
2018-Aug-05 10:30N 36°52' W 076°20'0 0.3
2018-Aug-05 09:58N 36°51' W 076°20'0 0.0
2018-Aug-05 09:28N 36°51' W 076°20'0 0.0
2018-Aug-05 08:58N 36°51' W 076°20'0 0.0
2018-Aug-05 08:28N 36°51' W 076°20'0 0.0
2018-Aug-05 07:58N 36°51' W 076°20'0 0.0
2018-Aug-05 07:28N 36°51' W 076°20'0 0.0
2018-Aug-05 06:58N 36°51' W 076°20'0 0.0
2018-Aug-05 06:28N 36°51' W 076°20'0 0.0
2018-Aug-05 05:58N 36°51' W 076°20'0 0.0
2018-Aug-05 05:28N 36°51' W 076°20'0 0.0
2018-Aug-05 04:58N 36°51' W 076°20'0 0.0
2018-Aug-05 04:28N 36°51' W 076°20'0 0.0
2018-Aug-05 03:58N 36°51' W 076°20'0 0.0
2018-Aug-05 03:28N 36°51' W 076°20'0 0.0
2018-Aug-05 02:58N 36°51' W 076°20'0 0.0
2018-Aug-05 02:28N 36°51' W 076°20'0 0.0
2018-Aug-05 01:58N 36°51' W 076°20'0 0.0
2018-Aug-05 01:28N 36°51' W 076°20'0 0.0
2018-Aug-05 00:58N 36°51' W 076°20'0 0.0
2018-Aug-05 00:25N 36°51' W 076°20'0 0.0
2018-Aug-04 23:58N 36°51' W 076°20'0 0.0
2018-Aug-04 23:28N 36°51' W 076°20'0 0.0
2018-Aug-04 22:58N 36°51' W 076°20'0 0.0
2018-Aug-04 22:28N 36°51' W 076°20'0 0.0
2018-Aug-04 21:58N 36°51' W 076°20'0 0.0
2018-Aug-04 21:28N 36°51' W 076°20'0 0.0
2018-Aug-04 20:58N 36°51' W 076°20'0 0.0
2018-Aug-04 20:28N 36°51' W 076°20'0 0.0
2018-Aug-04 19:58N 36°51' W 076°20'0 0.6
2018-Aug-04 19:31N 36°52' W 076°19'3 5.3
2018-Aug-04 19:01N 36°54' W 076°20'5 9.6
2018-Aug-04 18:30N 36°59' W 076°19'1017.3
2018-Aug-04 17:57N 36°59' W 076°08'4913.5
2018-Aug-04 14:21N 37°47' W 076°11'919.6
2018-Aug-04 13:53N 37°56' W 076°10'718.5
2018-Aug-04 13:30N 38°03' W 076°13'918.5
2018-Aug-04 13:00N 38°12' W 076°14'2917.8
2018-Aug-04 11:22N 38°40' W 076°25'818.9
2018-Aug-04 10:56N 38°48' W 076°25'917.8
2018-Aug-04 10:25N 38°57' W 076°23'615.6
2018-Aug-04 10:00N 39°03' W 076°23'713.8
2018-Aug-04 09:30N 39°10' W 076°26'611.4
2018-Aug-04 09:00N 39°13' W 076°32'2 4.6
2018-Aug-04 08:30N 39°15' W 076°33'0 0.4
2018-Aug-04 08:00N 39°15' W 076°33'0 0.0
2018-Aug-04 07:30N 39°15' W 076°33'0 0.0
2018-Aug-04 07:00N 39°15' W 076°33'0 0.0
2018-Aug-04 06:30N 39°15' W 076°33'0 0.0
2018-Aug-04 06:00N 39°15' W 076°33'0 0.0
2018-Aug-04 05:30N 39°15' W 076°33'0 0.0
2018-Aug-04 05:00N 39°15' W 076°33'0 0.0
2018-Aug-04 04:30N 39°15' W 076°33'0 0.0
2018-Aug-04 04:00N 39°15' W 076°33'0 0.0
2018-Aug-04 03:30N 39°15' W 076°33'0 0.0
2018-Aug-04 03:00N 39°15' W 076°33'0 0.0
2018-Aug-04 02:30N 39°15' W 076°33'0 0.0
2018-Aug-04 02:00N 39°15' W 076°33'0 0.0
2018-Aug-04 01:30N 39°15' W 076°33'0 0.0
2018-Aug-04 01:00N 39°15' W 076°33'0 0.0
2018-Aug-04 00:30N 39°15' W 076°33'0 0.0
2018-Aug-04 00:00N 39°15' W 076°33'0 0.0
2018-Aug-03 23:30N 39°15' W 076°33'0 0.0
2018-Aug-03 23:00N 39°15' W 076°33'0 0.0
2018-Aug-03 22:30N 39°15' W 076°33'0 0.0
2018-Aug-03 22:00N 39°15' W 076°33'0 0.0
2018-Aug-03 21:30N 39°15' W 076°33'0 0.0
2018-Aug-03 21:00N 39°15' W 076°33'0 0.0
2018-Aug-03 20:30N 39°15' W 076°33'0 0.0
2018-Aug-03 20:00N 39°15' W 076°33'0 0.0
2018-Aug-03 19:30N 39°15' W 076°33'0 0.0
2018-Aug-03 19:00N 39°15' W 076°33'0 0.0
2018-Aug-03 18:30N 39°15' W 076°33'0 0.0
2018-Aug-03 18:00N 39°15' W 076°33'0 0.0
2018-Aug-03 17:30N 39°15' W 076°33'0 0.0
2018-Aug-03 17:00N 39°15' W 076°33'0 0.0
2018-Aug-03 16:30N 39°15' W 076°33'0 0.0
2018-Aug-03 16:00N 39°15' W 076°33'0 0.0
2018-Aug-03 15:30N 39°15' W 076°33'0 0.0
2018-Aug-03 15:00N 39°15' W 076°33'0 0.0
2018-Aug-03 14:30N 39°15' W 076°33'0 0.0
2018-Aug-03 14:00N 39°15' W 076°33'0 0.0
2018-Aug-03 13:30N 39°15' W 076°33'0 0.0
2018-Aug-03 13:00N 39°15' W 076°33'0 0.0
2018-Aug-03 12:30N 39°15' W 076°33'0 0.0
2018-Aug-03 12:00N 39°15' W 076°33'0 0.0
2018-Aug-03 11:30N 39°15' W 076°33'0 0.0
2018-Aug-03 11:00N 39°15' W 076°33'0 0.0
2018-Aug-03 10:30N 39°15' W 076°33'0 0.0
2018-Aug-03 10:00N 39°15' W 076°33'0 0.0
2018-Aug-03 09:30N 39°15' W 076°33'0 0.0
2018-Aug-03 09:00N 39°15' W 076°33'0 0.0
2018-Aug-03 08:30N 39°15' W 076°33'0 0.0
2018-Aug-03 08:00N 39°15' W 076°33'0 0.0
2018-Aug-03 07:30N 39°15' W 076°33'0 0.0
2018-Aug-03 07:00N 39°15' W 076°33'0 0.0
2018-Aug-03 06:30N 39°15' W 076°33'0 0.0
2018-Aug-03 06:00N 39°15' W 076°33'0 0.0
2018-Aug-03 05:30N 39°15' W 076°33'0 0.0
2018-Aug-03 05:00N 39°15' W 076°33'0 0.0
2018-Aug-03 04:30N 39°15' W 076°33'0 0.0
2018-Aug-03 04:00N 39°15' W 076°33'0 0.0
2018-Aug-03 03:30N 39°15' W 076°33'0 0.0
2018-Aug-03 03:00N 39°15' W 076°33'0 0.0
2018-Aug-03 02:30N 39°15' W 076°33'0 0.0
2018-Aug-03 02:00N 39°15' W 076°33'0 0.0
2018-Aug-03 01:30N 39°15' W 076°33'0 0.0
2018-Aug-03 01:00N 39°15' W 076°33'0 0.0
2018-Aug-03 00:30N 39°15' W 076°33'0 0.0
2018-Aug-03 00:00N 39°15' W 076°33'0 0.0
2018-Aug-02 23:30N 39°15' W 076°33'0 0.0
2018-Aug-02 23:00N 39°15' W 076°33'0 0.0
2018-Aug-02 22:30N 39°15' W 076°33'0 0.8
2018-Aug-02 22:00N 39°15' W 076°33'3 5.8
2018-Aug-02 21:30N 39°12' W 076°31'5 9.2
2018-Aug-02 21:00N 39°10' W 076°26'611.2
2018-Aug-02 20:30N 39°05' W 076°24'611.6
2018-Aug-02 20:00N 38°59' W 076°23'713.1
2018-Aug-02 19:31N 38°52' W 076°24'917.4
2018-Aug-02 18:59N 38°44' W 076°26'917.9
2018-Aug-02 18:30N 38°35' W 076°26'1616.1
2018-Aug-02 17:31N 38°20' W 076°18'117.1
2018-Aug-02 17:28N 38°19' W 076°18'  

Dump ship's entire track history